• Join FlightAware (Why Join?)
  • Login
  • US Flag 
02:41AM EDT


 

Airport Tracker/Info


-or-


 

Live Flight TrackerFlight Track Log ✈ AAL270 ✈ 01-May-2013 ✈ PHNL - KLAX

Flight Track Log - Related Links

Times and Time Zones

All times are in EDT time to prevent confusion due to time zone crossing. See the AAL270 flight status page for this flight to view local times or setup timezone preferences in your user account.

Time Position Orientation Groundspeed Altitude Reporting Facility
EDT Latitude Longitude Course Direction KTS MPH feet Rate Location/Type
01:23PM 21.2510 -157.6549 102° East  Level FlightAware Approximate
01:24PM 21.2127 -157.5257 108° East  Level FlightAware Approximate
01:24PM 21.2010 -157.7760 108° East 271 312 6,500  Level FlightAware
01:24PM 21.1900 -157.7540 118° Southeast 276 318 7,200 2,400 Climbing FlightAware
01:25PM 21.1870 -157.7080 94° East 269 310 8,700 2,280 Climbing FlightAware
01:25PM 21.1880 -157.6790 88° East 269 310 9,500 1,440 Climbing FlightAware
01:26PM 21.1880 -157.6140 90° East 309 356 10,400 1,080 Climbing FlightAware
01:27PM 21.1940 -157.5200 86° East 358 412 11,300 1,380 Climbing FlightAware
01:27PM 21.2110 -157.4480 76° East 362 417 12,500 1,500 Climbing FlightAware
01:28PM 21.2270 -157.3710 77° East 383 441 13,500 1,200 Climbing FlightAware
01:29PM 21.2470 -157.2860 76° East 403 464 14,300 1,320 Climbing FlightAware
01:30PM 21.2710 -157.1750 77° East 418 481 15,700 840 Climbing FlightAware
01:30PM 21.2860 -157.1080 76° East 418 481 15,700  Level FlightAware
01:31PM 21.3000 -157.0390 78° East 418 481 15,700  Level FlightAware
01:32PM 21.3190 -156.9530 77° East 418 481 15,700  Level FlightAware
01:33PM 21.3340 -156.8850 77° East 418 481 15,700  Level FlightAware
01:33PM 21.3490 -156.8160 77° East 418 481 15,700 4,920 Level FlightAware
01:34PM 21.3833 -156.6167 77° East 460 529 22,900 4,680 Climbing Honolulu Center
01:35PM 21.4000 -156.4833 82° East 480 552 24,100 1,260 Climbing Honolulu Center
01:36PM 21.4333 -156.3333 77° East 490 564 25,500 1,260 Climbing Honolulu Center
01:37PM 21.4667 -156.1833 77° East 490 564 26,700 1,200 Climbing Honolulu Center
01:38PM 21.5000 -156.0500 75° East 500 575 28,000 1,440 Climbing Honolulu Center
01:39PM 21.5333 -155.9000 77° East 500 575 29,600 1,500 Climbing Honolulu Center
01:40PM 21.5667 -155.7667 75° East 510 587 31,000 1,500 Climbing Honolulu Center
01:41PM 21.5833 -155.6167 83° East 490 564 32,700 1,440 Climbing Honolulu Center
01:42PM 21.6167 -155.4833 75° East 490 564 33,900 1,200 Climbing Honolulu Center
01:43PM 21.6500 -155.3333 77° East 490 564 35,200 1,200 Climbing Honolulu Center
01:44PM 21.6833 -155.2000 75° East 490 564 36,300 900 Climbing Honolulu Center
01:45PM 21.7167 -155.0500 77° East 490 564 37,000 300 Climbing Honolulu Center
01:46PM 21.7500 -154.9000 77° East 500 575 37,000  Level Honolulu Center
01:47PM 21.7667 -154.7500 83° East 500 575 37,000  Level Honolulu Center
01:48PM 21.8000 -154.6000 77° East 500 575 37,000  Level Honolulu Center
01:49PM 21.8333 -154.4667 75° East 500 575 37,000  Level Honolulu Center
01:50PM 21.8667 -154.3167 77° East 500 575 37,000  Level Honolulu Center
01:51PM 21.8833 -154.1667 83° East 500 575 37,000  Level Honolulu Center
01:52PM 21.9167 -154.0167 77° East 500 575 37,000  Level Honolulu Center
01:53PM 21.9500 -153.8833 75° East 500 575 37,000  Level Honolulu Center
01:54PM 21.9833 -153.7333 76° East 500 575 37,000  Level Honolulu Center
01:55PM 22.0167 -153.5667 78° East 500 575 37,000  Level Honolulu Center
01:56PM 22.0333 -153.4333 82° East 490 564 37,000  Level Honolulu Center
01:57PM 22.0667 -153.2833 76° East 480 552 37,000 60 Level Honolulu Center
01:59PM 22.1059 -153.0860 78° East  Level FlightAware Approximate
02:06PM 22.2901 -152.1426 78° East  Level FlightAware Approximate
02:07PM 22.3160 -152.0076 78° East  Level FlightAware Approximate
02:08PM 22.3422 -151.8653 62° Northeast  Level FlightAware Approximate
02:09PM 22.4022 -151.7428 62° Northeast  Level FlightAware Approximate
02:09PM 22.3500 -151.8833 62° Northeast 460 529 38,000  Level Oakland Oceanic (ODAPS)
02:10PM 22.4621 -151.6201 62° Northeast  Level FlightAware Approximate
02:11PM 22.5219 -151.4973 62° Northeast  Level FlightAware Approximate
02:12PM 22.5817 -151.3743 62° Northeast  Level FlightAware Approximate
02:13PM 22.6413 -151.2513 62° Northeast  Level FlightAware Approximate
02:14PM 22.7009 -151.1282 62° Northeast  Level FlightAware Approximate
02:15PM 22.7604 -151.0050 62° Northeast  Level FlightAware Approximate
02:16PM 22.8863 -150.7805 62° Northeast 460 529 38,000  Level FlightAware Transoceanic
02:17PM 22.9454 -150.6575 62° Northeast 460 529 38,000  Level FlightAware Transoceanic
02:18PM 23.0044 -150.5343 63° Northeast 460 529 38,000  Level FlightAware Transoceanic
02:19PM 23.0634 -150.4110 63° Northeast 460 529 38,000  Level FlightAware Transoceanic
02:20PM 23.1222 -150.2876 63° Northeast 460 529 38,000  Level FlightAware Transoceanic
02:21PM 23.1809 -150.1641 63° Northeast 460 529 38,000  Level FlightAware Transoceanic
02:22PM 23.2396 -150.0405 63° Northeast 460 529 38,000  Level FlightAware Transoceanic
02:23PM 23.2981 -149.9168 63° Northeast 460 529 38,000  Level FlightAware Transoceanic
02:24PM 23.3566 -149.7930 63° Northeast 460 529 38,000  Level FlightAware Transoceanic
02:25PM 23.4149 -149.6690 63° Northeast 460 529 38,000  Level FlightAware Transoceanic
02:26PM 23.4732 -149.5450 63° Northeast 460 529 38,000  Level FlightAware Transoceanic
02:27PM 23.5313 -149.4208 63° Northeast 460 529 38,000  Level FlightAware Transoceanic
02:28PM 23.5893 -149.2966 63° Northeast 460 529 38,000  Level FlightAware Transoceanic
02:29PM 23.6473 -149.1722 63° Northeast 460 529 38,000  Level FlightAware Transoceanic
02:30PM 23.7052 -149.0477 63° Northeast 460 529 38,000  Level FlightAware Transoceanic
02:31PM 23.7629 -148.9231 63° Northeast 460 529 38,000  Level FlightAware Transoceanic
02:32PM 23.8206 -148.7984 63° Northeast 460 529 38,000  Level FlightAware Transoceanic
02:33PM 23.8781 -148.6736 63° Northeast 460 529 38,000  Level FlightAware Transoceanic
02:34PM 23.9356 -148.5487 63° Northeast 460 529 38,000  Level FlightAware Transoceanic
02:35PM 23.9929 -148.4236 63° Northeast 460 529 38,000  Level FlightAware Transoceanic
02:36PM 24.0502 -148.2985 63° Northeast 460 529 38,000  Level FlightAware Transoceanic
02:37PM 24.1073 -148.1732 63° Northeast 460 529 38,000  Level FlightAware Transoceanic
02:38PM 24.1644 -148.0479 64° Northeast 460 529 38,000  Level FlightAware Transoceanic
02:39PM 24.2213 -147.9224 64° Northeast 460 529 38,000  Level FlightAware Transoceanic
02:40PM 24.2782 -147.7968 64° Northeast 460 529 38,000  Level FlightAware Transoceanic
02:41PM 24.3349 -147.6711 64° Northeast 460 529 38,000  Level FlightAware Transoceanic
02:42PM 24.3916 -147.5453 64° Northeast 460 529 38,000  Level FlightAware Transoceanic
02:43PM 24.4481 -147.4193 64° Northeast 460 529 38,000  Level FlightAware Transoceanic
02:44PM 24.5045 -147.2933 64° Northeast 460 529 38,000  Level FlightAware Transoceanic
02:45PM 24.5608 -147.1671 64° Northeast 460 529 38,000  Level FlightAware Transoceanic
02:46PM 24.6171 -147.0408 64° Northeast 460 529 38,000  Level FlightAware Transoceanic
02:47PM 24.6732 -146.9144 64° Northeast 460 529 38,000  Level FlightAware Transoceanic
02:48PM 24.7292 -146.7879 64° Northeast 460 529 38,000  Level FlightAware Transoceanic
02:49PM 24.7851 -146.6613 64° Northeast 460 529 38,000  Level FlightAware Transoceanic
02:50PM 24.8409 -146.5346 64° Northeast 460 529 38,000  Level FlightAware Transoceanic
02:51PM 24.8965 -146.4078 64° Northeast 460 529 38,000  Level FlightAware Transoceanic
02:52PM 24.9521 -146.2808 64° Northeast 460 529 38,000  Level FlightAware Transoceanic
02:53PM 25.0076 -146.1537 64° Northeast 460 529 38,000  Level FlightAware Transoceanic
02:54PM 25.0630 -146.0266 64° Northeast 460 529 38,000  Level FlightAware Transoceanic
02:55PM 25.1182 -145.8993 64° Northeast 460 529 38,000  Level FlightAware Transoceanic
02:56PM 25.1734 -145.7718 64° Northeast 460 529 38,000  Level FlightAware Transoceanic
02:57PM 25.2284 -145.6443 65° Northeast 460 529 38,000  Level FlightAware Transoceanic
02:58PM 25.2833 -145.5167 65° Northeast 460 529 38,000  Level FlightAware Transoceanic
02:59PM 25.3379 -145.3889 65° Northeast 460 529 38,000  Level FlightAware Transoceanic
03:00PM 25.3923 -145.2610 65° Northeast 460 529 38,000  Level FlightAware Transoceanic
03:01PM 25.4466 -145.1329 65° Northeast 460 529 38,000 600 Level FlightAware Transoceanic
03:01PM 25.2833 -145.5167 65° Northeast 450 518 39,000  Climbing Oakland Oceanic (ODAPS)
03:02PM 25.5009 -145.0048 65° Northeast 460 529 38,000 -720 Descending FlightAware Transoceanic
03:03PM 25.5550 -144.8766 65° Northeast 460 529 38,000  Level FlightAware Transoceanic
03:04PM 25.6089 -144.7482 65° Northeast 460 529 38,000  Level FlightAware Transoceanic
03:05PM 25.6628 -144.6197 65° Northeast 460 529 38,000  Level FlightAware Transoceanic
03:06PM 25.7166 -144.4911 65° Northeast 460 529 38,000 480 Level FlightAware Transoceanic
03:07PM 25.7610 -144.3847 65° Northeast 450 518 39,000 480 Climbing FlightAware Transoceanic
03:08PM 25.8135 -144.2584 65° Northeast 450 518 39,000  Level FlightAware Transoceanic
03:09PM 25.8659 -144.1319 65° Northeast 450 518 39,000  Level FlightAware Transoceanic
03:10PM 25.9182 -144.0054 65° Northeast 450 518 39,000  Level FlightAware Transoceanic
03:11PM 25.9704 -143.8787 65° Northeast 450 518 39,000  Level FlightAware Transoceanic
03:12PM 26.0225 -143.7519 65° Northeast 450 518 39,000  Level FlightAware Transoceanic
03:13PM 26.0745 -143.6250 66° East 450 518 39,000  Level FlightAware Transoceanic
03:14PM 26.1264 -143.4980 66° East 450 518 39,000  Level FlightAware Transoceanic
03:15PM 26.1781 -143.3709 66° East 450 518 39,000  Level FlightAware Transoceanic
03:16PM 26.2298 -143.2437 66° East 450 518 39,000  Level FlightAware Transoceanic
03:17PM 26.2813 -143.1163 66° East 450 518 39,000  Level FlightAware Transoceanic
03:18PM 26.3327 -142.9889 66° East 450 518 39,000  Level FlightAware Transoceanic
03:19PM 26.3840 -142.8613 66° East 450 518 39,000  Level FlightAware Transoceanic
03:20PM 26.4352 -142.7336 66° East 450 518 39,000  Level FlightAware Transoceanic
03:21PM 26.4863 -142.6058 66° East 450 518 39,000  Level FlightAware Transoceanic
03:22PM 26.5373 -142.4779 66° East 450 518 39,000  Level FlightAware Transoceanic
03:23PM 26.5881 -142.3499 66° East 450 518 39,000  Level FlightAware Transoceanic
03:24PM 26.6389 -142.2217 66° East 450 518 39,000  Level FlightAware Transoceanic
03:25PM 26.6895 -142.0935 66° East 450 518 39,000  Level FlightAware Transoceanic
03:26PM 26.7400 -141.9651 66° East 450 518 39,000  Level FlightAware Transoceanic
03:27PM 26.7904 -141.8367 66° East 450 518 39,000  Level FlightAware Transoceanic
03:28PM 26.8407 -141.7081 66° East 450 518 39,000  Level FlightAware Transoceanic
03:29PM 26.8908 -141.5793 66° East 450 518 39,000  Level FlightAware Transoceanic
03:30PM 26.9409 -141.4505 66° East 450 518 39,000  Level FlightAware Transoceanic
03:31PM 26.9908 -141.3216 67° East 450 518 39,000  Level FlightAware Transoceanic
03:32PM 27.0406 -141.1925 67° East 450 518 39,000  Level FlightAware Transoceanic
03:33PM 27.0903 -141.0634 67° East 450 518 39,000  Level FlightAware Transoceanic
03:34PM 27.1399 -140.9341 67° East 450 518 39,000  Level FlightAware Transoceanic
03:35PM 27.1893 -140.8047 67° East 450 518 39,000  Level FlightAware Transoceanic
03:36PM 27.2386 -140.6752 67° East 450 518 39,000  Level FlightAware Transoceanic
03:37PM 27.2879 -140.5456 67° East 450 518 39,000  Level FlightAware Transoceanic
03:38PM 27.3370 -140.4158 67° East 450 518 39,000  Level FlightAware Transoceanic
03:39PM 27.3859 -140.2860 67° East 450 518 39,000  Level FlightAware Transoceanic
03:40PM 27.4348 -140.1560 67° East 450 518 39,000  Level FlightAware Transoceanic
03:41PM 27.4835 -140.0259 67° East 450 518 39,000  Level FlightAware Transoceanic
03:42PM 27.5322 -139.8957 67° East 450 518 39,000  Level FlightAware Transoceanic
03:43PM 27.5806 -139.7654 67° East 450 518 39,000  Level FlightAware Transoceanic
03:44PM 27.6290 -139.6350 67° East 450 518 39,000  Level FlightAware Transoceanic
03:45PM 27.6773 -139.5044 67° East 450 518 39,000  Level FlightAware Transoceanic
03:46PM 27.7254 -139.3738 67° East 450 518 39,000  Level FlightAware Transoceanic
03:47PM 27.7734 -139.2430 68° East 450 518 39,000  Level FlightAware Transoceanic
03:48PM 27.8213 -139.1121 68° East 450 518 39,000  Level FlightAware Transoceanic
03:49PM 27.8690 -138.9811 68° East 450 518 39,000  Level FlightAware Transoceanic
03:50PM 27.9167 -138.8500 77° East 450 518 39,000  Level FlightAware Transoceanic
03:51PM 27.9463 -138.7041 77° East 450 518 39,000  Level FlightAware Transoceanic
03:52PM 27.9757 -138.5582 77° East 450 518 39,000  Level FlightAware Transoceanic
03:53PM 28.0050 -138.4122 77° East 450 518 39,000  Level FlightAware Transoceanic
03:53PM 27.9167 -138.8500 77° East 477 549 39,000  Level Oakland Oceanic (ODAPS)
03:54PM 28.0341 -138.2661 77° East 450 518 39,000  Level FlightAware Transoceanic
03:54PM 27.9167 -138.8500 77° East 477 549 39,000  Level Oakland Oceanic (ODAPS)
03:55PM 28.0631 -138.1199 77° East 450 518 39,000  Level FlightAware Transoceanic
03:56PM 28.0919 -137.9736 77° East 450 518 39,000  Level FlightAware Transoceanic
03:57PM 28.1205 -137.8273 78° East 450 518 39,000  Level FlightAware Transoceanic
03:58PM 28.1490 -137.6809 78° East 450 518 39,000  Level FlightAware Transoceanic
03:59PM 28.1490 -137.6809 78° East 477 549 39,000  Level FlightAware Transoceanic
04:00PM 28.1774 -137.5344 78° East 477 549 39,000  Level FlightAware Transoceanic
04:01PM 28.2056 -137.3878 78° East 477 549 39,000  Level FlightAware Transoceanic
04:02PM 28.2336 -137.2412 78° East 477 549 39,000  Level FlightAware Transoceanic
04:03PM 28.2615 -137.0945 78° East 477 549 39,000  Level FlightAware Transoceanic
04:04PM 28.2892 -136.9477 78° East 477 549 39,000  Level FlightAware Transoceanic
04:05PM 28.3168 -136.8008 78° East 477 549 39,000  Level FlightAware Transoceanic
04:06PM 28.3442 -136.6538 78° East 477 549 39,000  Level FlightAware Transoceanic
04:07PM 28.3714 -136.5068 78° East 477 549 39,000  Level FlightAware Transoceanic
04:08PM 28.3985 -136.3597 78° East 477 549 39,000  Level FlightAware Transoceanic
04:09PM 28.4255 -136.2125 78° East 477 549 39,000  Level FlightAware Transoceanic
04:10PM 28.4522 -136.0653 78° East 477 549 39,000  Level FlightAware Transoceanic
04:11PM 28.4789 -135.9179 78° East 477 549 39,000  Level FlightAware Transoceanic
04:12PM 28.5053 -135.7705 78° East 477 549 39,000  Level FlightAware Transoceanic
04:13PM 28.5316 -135.6231 79° East 477 549 39,000  Level FlightAware Transoceanic
04:14PM 28.5578 -135.4755 79° East 477 549 39,000  Level FlightAware Transoceanic
04:15PM 28.5837 -135.3279 79° East 477 549 39,000  Level FlightAware Transoceanic
04:16PM 28.6096 -135.1802 79° East 477 549 39,000  Level FlightAware Transoceanic
04:17PM 28.6352 -135.0324 79° East 477 549 39,000  Level FlightAware Transoceanic
04:18PM 28.6607 -134.8846 79° East 477 549 39,000  Level FlightAware Transoceanic
04:19PM 28.6861 -134.7367 79° East 477 549 39,000  Level FlightAware Transoceanic
04:20PM 28.7113 -134.5887 79° East 477 549 39,000  Level FlightAware Transoceanic
04:21PM 28.7363 -134.4406 79° East 477 549 39,000  Level FlightAware Transoceanic
04:22PM 28.7611 -134.2925 79° East 477 549 39,000  Level FlightAware Transoceanic
04:23PM 28.7858 -134.1443 79° East 477 549 39,000  Level FlightAware Transoceanic
04:24PM 28.8104 -133.9961 79° East 477 549 39,000  Level FlightAware Transoceanic
04:25PM 28.8347 -133.8477 79° East 477 549 39,000  Level FlightAware Transoceanic
04:26PM 28.8589 -133.6993 79° East 477 549 39,000  Level FlightAware Transoceanic
04:27PM 28.8830 -133.5509 80° East 477 549 39,000  Level FlightAware Transoceanic
04:28PM 28.9069 -133.4023 80° East 477 549 39,000  Level FlightAware Transoceanic
04:28PM 27.9167 -138.8500 77° East 477 549 39,000  Level Oakland Oceanic (ODAPS)
04:29PM 28.9306 -133.2537 80° East 477 549 39,000  Level FlightAware Transoceanic
04:30PM 28.9541 -133.1050 80° East 477 549 39,000  Level FlightAware Transoceanic
04:31PM 28.9775 -132.9563 80° East 477 549 39,000  Level FlightAware Transoceanic
04:32PM 29.0008 -132.8075 80° East 477 549 39,000  Level FlightAware Transoceanic
04:33PM 29.0238 -132.6586 80° East 477 549 39,000  Level FlightAware Transoceanic
04:34PM 29.0467 -132.5097 80° East 477 549 39,000  Level FlightAware Transoceanic
04:35PM 29.0695 -132.3607 80° East 477 549 39,000  Level FlightAware Transoceanic
04:36PM 29.0920 -132.2116 80° East 477 549 39,000  Level FlightAware Transoceanic
04:37PM 29.1145 -132.0624 80° East 477 549 39,000  Level FlightAware Transoceanic
04:38PM 29.1367 -131.9132 80° East 477 549 39,000  Level FlightAware Transoceanic
04:39PM 29.1588 -131.7640 80° East 477 549 39,000  Level FlightAware Transoceanic
04:40PM 29.1807 -131.6146 80° East 477 549 39,000  Level FlightAware Transoceanic
04:41PM 29.2024 -131.4652 81° East 477 549 39,000  Level FlightAware Transoceanic
04:42PM 29.2240 -131.3158 81° East 477 549 39,000  Level FlightAware Transoceanic
04:43PM 29.2454 -131.1662 81° East 477 549 39,000  Level FlightAware Transoceanic
04:44PM 29.2667 -131.0167 72° East 477 549 39,000  Level FlightAware Transoceanic
04:45PM 29.3089 -130.8672 72° East 477 549 39,000  Level FlightAware Transoceanic
04:46PM 29.3510 -130.7175 72° East 477 549 39,000  Level FlightAware Transoceanic
04:47PM 29.3929 -130.5678 72° East 477 549 39,000  Level FlightAware Transoceanic
04:47PM 29.2667 -131.0167 72° East 475 547 39,000  Level Oakland Oceanic (ODAPS)
04:48PM 29.4347 -130.4179 72° East 477 549 39,000  Level FlightAware Transoceanic
04:49PM 29.4762 -130.2679 72° East 477 549 39,000  Level FlightAware Transoceanic
04:50PM 29.5177 -130.1178 72° East 477 549 39,000  Level FlightAware Transoceanic
04:51PM 29.5589 -129.9676 73° East 477 549 39,000  Level FlightAware Transoceanic
04:52PM 29.6000 -129.8172 73° East 477 549 39,000  Level FlightAware Transoceanic
04:53PM 29.6409 -129.6667 73° East 477 549 39,000  Level FlightAware Transoceanic
04:54PM 29.6657 -129.5752 73° East 475 547 39,000  Level FlightAware Transoceanic
04:55PM 29.7047 -129.4304 73° East 475 547 39,000  Level FlightAware Transoceanic
04:56PM 29.7436 -129.2856 73° East 475 547 39,000  Level FlightAware Transoceanic
04:57PM 29.7823 -129.1406 73° East 475 547 39,000  Level FlightAware Transoceanic
04:58PM 29.8209 -128.9955 73° East 475 547 39,000  Level FlightAware Transoceanic
04:59PM 29.8593 -128.8503 73° East 475 547 39,000  Level FlightAware Transoceanic
05:00PM 29.8976 -128.7049 73° East 475 547 39,000  Level FlightAware Transoceanic
05:01PM 29.9356 -128.5595 73° East 475 547 39,000  Level FlightAware Transoceanic
05:02PM 29.9736 -128.4139 73° East 475 547 39,000  Level FlightAware Transoceanic
05:03PM 30.0114 -128.2683 73° East 475 547 39,000  Level FlightAware Transoceanic
05:04PM 30.0490 -128.1225 73° East 475 547 39,000  Level FlightAware Transoceanic
05:05PM 30.0864 -127.9766 74° East 475 547 39,000  Level FlightAware Transoceanic
05:06PM 30.1237 -127.8306 74° East 475 547 39,000  Level FlightAware Transoceanic
05:07PM 30.1608 -127.6845 74° East 475 547 39,000  Level FlightAware Transoceanic
05:08PM 30.1978 -127.5383 74° East 475 547 39,000  Level FlightAware Transoceanic
05:09PM 30.2346 -127.3920 74° East 475 547 39,000  Level FlightAware Transoceanic
05:10PM 30.2712 -127.2456 74° East 475 547 39,000  Level FlightAware Transoceanic
05:11PM 30.3077 -127.0990 74° East 475 547 39,000  Level FlightAware Transoceanic
05:12PM 30.3440 -126.9524 74° East 475 547 39,000  Level FlightAware Transoceanic
05:13PM 30.3802 -126.8056 74° East 475 547 39,000  Level FlightAware Transoceanic
05:14PM 30.4162 -126.6587 74° East 475 547 39,000  Level FlightAware Transoceanic
05:15PM 30.4520 -126.5118 74° East 475 547 39,000  Level FlightAware Transoceanic
05:16PM 30.4876 -126.3647 74° East 475 547 39,000  Level FlightAware Transoceanic
05:17PM 30.5231 -126.2175 74° East 475 547 39,000  Level FlightAware Transoceanic
05:18PM 30.5585 -126.0702 74° East 475 547 39,000  Level FlightAware Transoceanic
05:19PM 30.5936 -125.9228 75° East 475 547 39,000  Level FlightAware Transoceanic
05:20PM 30.6286 -125.7753 75° East 475 547 39,000  Level FlightAware Transoceanic
05:21PM 30.6634 -125.6277 75° East 475 547 39,000  Level FlightAware Transoceanic
05:22PM 30.6981 -125.4799 75° East 475 547 39,000  Level FlightAware Transoceanic
05:23PM 30.7326 -125.3321 75° East 475 547 39,000  Level FlightAware Transoceanic
05:24PM 30.7669 -125.1842 75° East 475 547 39,000  Level FlightAware Transoceanic
05:25PM 30.8011 -125.0361 75° East 475 547 39,000  Level FlightAware Transoceanic
05:26PM 30.8351 -124.8880 75° East 475 547 39,000  Level FlightAware Transoceanic
05:27PM 30.8689 -124.7397 75° East 475 547 39,000  Level FlightAware Transoceanic
05:28PM 30.9025 -124.5914 75° East 475 547 39,000  Level FlightAware Transoceanic
05:29PM 30.9360 -124.4429 75° East 475 547 39,000  Level FlightAware Transoceanic
05:30PM 30.9693 -124.2944 75° East 475 547 39,000  Level FlightAware Transoceanic
05:31PM 31.0025 -124.1457 75° East 475 547 39,000  Level FlightAware Transoceanic
05:32PM 31.0354 -123.9969 76° East 475 547 39,000  Level FlightAware Transoceanic
05:33PM 31.0683 -123.8481 76° East 475 547 39,000  Level FlightAware Transoceanic
05:34PM 31.1009 -123.6991 76° East 475 547 39,000  Level FlightAware Transoceanic
05:35PM 31.1333 -123.5500 77° East 475 547 39,000  Level FlightAware Transoceanic
05:36PM 31.1643 -123.3971 77° East 475 547 39,000  Level FlightAware Transoceanic
05:37PM 31.1950 -123.2440 77° East 475 547 39,000  Level FlightAware Transoceanic
05:37PM 31.2011 -123.1372 77° East 471 542 39,000  Level Los Angeles Center
05:38PM 31.2256 -123.0909 77° East 475 547 39,000  Level FlightAware Transoceanic
05:38PM 31.2306 -122.9828 77° East 489 563 39,000  Level Los Angeles Center
05:39PM 31.2560 -122.9377 77° East 475 547 39,000  Level FlightAware Transoceanic
05:39PM 31.2625 -122.8322 76° East 484 557 39,000  Level Los Angeles Center
05:40PM 31.2862 -122.7843 77° East 475 547 39,000  Level FlightAware Transoceanic
05:40PM 31.2997 -122.6486 77° East 484 557 39,000  Level Los Angeles Center
05:41PM 31.3163 -122.6309 77° East 475 547 39,000  Level FlightAware Transoceanic
05:41PM 31.3308 -122.4975 76° East 483 556 39,000  Level Los Angeles Center
05:42PM 31.3461 -122.4774 77° East 475 547 39,000  Level FlightAware Transoceanic
05:42PM 31.3617 -122.3453 77° East 482 555 39,000  Level Los Angeles Center
05:43PM 31.3925 -122.1922 77° East 483 556 39,000  Level Los Angeles Center
05:44PM 31.4228 -122.0386 77° East 484 557 39,000  Level Los Angeles Center
05:45PM 31.4547 -121.8928 76° East 479 551 39,000  Level Los Angeles Center
05:46PM 31.4925 -121.7153 76° East 473 544 39,000  Level Los Angeles Center
05:47PM 31.5203 -121.5617 78° East 477 549 39,000  Level Los Angeles Center
05:48PM 31.5497 -121.4067 77° East 483 556 39,000  Level Los Angeles Center
05:49PM 31.5975 -121.2764 67° East 469 540 39,000  Level Los Angeles Center
05:50PM 31.6492 -121.1342 67° East 472 543 39,000  Level Los Angeles Center
05:51PM 31.7081 -120.9614 68° East 475 547 39,000  Level Los Angeles Center
05:52PM 31.7569 -120.8186 68° East 475 547 39,000  Level Los Angeles Center
05:53PM 31.8061 -120.6733 68° East 472 543 39,000  Level Los Angeles Center
05:54PM 31.8525 -120.5344 69° East 468 539 39,000 -120 Level Los Angeles Center
06:01PM 32.3300 -119.7790 69° East 456 525 38,500 -420 Descending FlightAware
06:01PM 32.4130 -119.6740 47° Northeast 457 526 36,100 -2,700 Descending FlightAware
06:02PM 32.4710 -119.6000 47° Northeast 461 531 34,300 -2,880 Descending FlightAware
06:03PM 32.5350 -119.5170 48° Northeast 463 533 32,100 -3,060 Descending FlightAware
06:04PM 32.5950 -119.4410 47° Northeast 472 543 30,000 -2,220 Descending FlightAware
06:04PM 32.6500 -119.3690 48° Northeast 474 545 29,200 -600 Descending FlightAware
06:05PM 32.7010 -119.3050 47° Northeast 474 545 29,200  Level FlightAware
06:06PM 32.7650 -119.2240 47° Northeast 474 545 29,200  Level FlightAware
06:06PM 32.8160 -119.1590 47° Northeast 474 545 29,200  Level FlightAware
06:07PM 32.8660 -119.0940 48° Northeast 474 545 29,200  Level FlightAware
06:08PM 32.9170 -119.0290 47° Northeast 474 545 29,200 -3,180 Level FlightAware
06:12PM 33.2910 -118.5330 48° Northeast 323 372 12,000 -2,940 Descending FlightAware
06:14PM 33.3590 -118.4420 48° Northeast 326 375 12,000  Level FlightAware
06:14PM 33.3880 -118.3920 55° Northeast 327 376 12,000  Level FlightAware
06:15PM 33.4010 -118.3210 78° East 333 383 12,000  Level FlightAware
06:15PM 33.4100 -118.2480 82° East 332 382 12,000 -120 Level FlightAware
06:16PM 33.4220 -118.1650 80° East 323 372 11,900 -240 Descending FlightAware
06:17PM 33.4460 -118.1050 64° Northeast 294 338 11,700 -780 Descending FlightAware
06:18PM 33.4930 -118.0640 36° Northeast 283 326 10,800 -1,200 Descending FlightAware
06:18PM 33.5360 -118.0280 35° Northeast 274 315 10,000 -1,500 Descending FlightAware
06:19PM 33.5690 -118.0050 30° Northeast 281 323 9,100 -1,680 Descending FlightAware
06:19PM 33.6010 -117.9890 23° Northeast 287 330 8,500 -1,500 Descending FlightAware
06:19PM 33.6200 -117.9890 360° North 290 334 8,100 -1,200 Descending FlightAware
06:20PM 33.6580 -117.9950 353° North 283 326 7,600 -900 Descending FlightAware
06:20PM 33.6910 -118.0050 346° North 270 311 7,300 -600 Descending FlightAware
06:21PM 33.7070 -118.0110 343° North 262 302 7,200 -600 Descending FlightAware
06:21PM 33.7370 -118.0220 343° North 249 287 6,900 -240 Descending FlightAware
06:22PM 33.7710 -118.0340 344° North 250 288 7,000 120 Climbing FlightAware
06:22PM 33.7860 -118.0390 345° North 250 288 7,000 -480 Level FlightAware
06:22PM 33.8140 -118.0490 343° North 241 277 6,700 -780 Descending FlightAware
06:22PM 33.8300 -118.0480 North 235 270 6,500 -1,020 Descending FlightAware
06:23PM 33.8470 -118.0440 11° North 233 268 6,200 -1,080 Descending FlightAware
06:23PM 33.8720 -118.0400 North 229 264 5,800 -900 Descending FlightAware
06:24PM 33.9040 -118.0340 North 221 254 5,400 -960 Descending FlightAware
06:24PM 33.9200 -118.0360 354° North 228 262 5,100 -1,020 Descending FlightAware
06:24PM 33.9310 -118.0470 320° Northwest 237 273 4,900 -1,020 Descending FlightAware
06:24PM 33.9390 -118.0670 296° West 244 281 4,600 -1,200 Descending FlightAware
06:25PM 33.9440 -118.0990 281° West 242 278 4,100 -660 Descending FlightAware
06:25PM 33.9500 -118.1370 281° West 213 245 4,000 -540 Descending FlightAware
06:26PM 33.9550 -118.1710 280° West 200 230 3,600 -780 Descending FlightAware
06:26PM 33.9570 -118.1830 281° West 200 230 3,500 -900 Descending FlightAware
06:26PM 33.9570 -118.2150 270° West 198 228 3,000 -960 Descending FlightAware
06:27PM 33.9560 -118.2360 267° West 194 223 2,700 -480 Descending FlightAware
06:27PM 33.9530 -118.2670 263° West 193 222 2,600 -1,140 Descending FlightAware
06:28PM 33.9490 -118.3060 263° West 166 191 1,400 -1,140 Descending FlightAware
06:28PM 33.9460 -118.3280 261° West 166 191 1,400 -840 Level FlightAware
06:29PM 33.9440 -118.3470 263° West 142 163 600 -1,140 Descending FlightAware
06:29PM 33.9410 -118.3680 260° West 133 153 200 -480 Descending FlightAware
06:30PM 33.9390 -118.3860 262° West 133 153 200  Level FlightAware